Stewart, Canada
Current Conditions -  °F | °C
As of 5:53 PM on Saturday 22 Nov 2014 (Local Time) from PAKT Reporting Station
Overcast Overcast  
Wind Chill: 40°   Ceiling: 3300
Heat Index: 45°   Visibility: 10mi
Dew Point: 43°   Wind: 9mph
Humidity: 93%   Direction: 140°SE
Pressure: 29.52"   Gusts: NA
Location:  55.93°N, 130°W
Report Text: PAKT 230153Z 14008KT 10SM FEW023 BKN033 OVC042 07/06 A2952 RMK AO2 RAB04E32 SLP996 P0002 T00720061
Loading
Personal Weather Stations






























Interactive Weather Map New forecast layout! Learn more

10-Day Weather Forecast

Advertisements
Track Severe Weather on mobile